Dearing, Kansas
Current Conditions -  °F | °C
As of 1:52 AM on Sunday 26 Oct 2014 (Local Time) from KCFV Reporting Station
Clear Clear  
Wind Chill: 62°   Ceiling: Unl
Heat Index: 62°   Visibility: 8mi
Dew Point: 60°   Wind: 3mph
Humidity: 93%   Direction: 170°S
Pressure: 29.95"   Gusts: NA
Location:  37.06°N, 95.71°W
Report Text: KCFV 260652Z AUTO 17003KT 8SM CLR 17/16 A2995 RMK AO2 SLP137 T01670156
Loading
Personal Weather Stations






























Interactive Weather Map
Tropical Storm Tracking
New forecast layout! Learn more

10-Day Weather Forecast

Advertisements
Track Severe Weather on mobile